PRG weather

Edgar County Airport
Paris, Illinois, United States

Public forecast

Using degrees Fahrenheit for public forecast. Weather courtesy of forecast.io.

Current aviation weather report (METAR) for Edgar County Airport

Retrieved 2020/04/06 08:15 UTC (4 minutes ago):

KPRG 060815Z AUTO 00000KT 10SM CLR 07/07 A3011 RMK AO2 T00740066

Closest aviation forecast (TAF) to Edgar County Airport

Closest forecast is Terre Haute Regional Airport, Hulman Field, 22.4 nm (41.6 km) SE. Retrieved 2020/04/06 06:22 UTC (2 hours ago):

TAF KHUF 060520Z 0606/0706 VRB03KT P6SM OVC080 FM061000 VRB03KT 4SM BR BKN020 FM061300 11005KT P6SM SCT020 FM061400 17005KT P6SM BKN040